Time;durP1;ratioP1;P1;durP2;ratioP2;P2;SDS_P1;SDS_P2;PMS_P1;PMS_P2;Temp;Humidity;BMP_temperature;BMP_pressure;BME280_temperature;BME280_humidity;BME280_pressure;Samples;Min_cycle;Max_cycle;Signal;HPM_P1;HPM_P2
2023/06/13 00:00:19;;;;;;;3.90;3.58;;;;;;;;;;5134904;27;20091;-76
2023/06/13 00:02:45;;;;;;;4.28;3.88;;;;;;;;;;5134786;27;20110;-77
2023/06/13 00:05:11;;;;;;;3.85;3.55;;;;;;;;;;5134643;27;20259;-76
2023/06/13 00:07:38;;;;;;;5.78;3.63;;;;;;;;;;5134621;27;20035;-75
2023/06/13 00:10:05;;;;;;;3.70;3.33;;;;;;;;;;5134329;27;20058;-78
2023/06/13 00:12:34;;;;;;;4.65;4.00;;;;;;;;;;5134567;27;20042;-75
2023/06/13 00:15:02;;;;;;;4.20;3.80;;;;;;;;;;5116494;27;20027;-77
2023/06/13 00:17:36;;;;;;;9.70;4.25;;;;;;;;;;5134609;27;20062;-77
2023/06/13 00:20:05;;;;;;;5.78;4.05;;;;;;;;;;5134602;27;20489;-76
2023/06/13 00:22:32;;;;;;;5.38;4.20;;;;;;;;;;5134766;27;20038;-77
2023/06/13 00:24:57;;;;;;;5.40;4.82;;;;;;;;;;5099584;27;20027;-76
2023/06/13 00:27:24;;;;;;;5.93;4.28;;;;;;;;;;5135402;27;20065;-76
2023/06/13 00:29:50;;;;;;;4.68;4.15;;;;;;;;;;5119105;27;20059;-76
2023/06/13 00:32:17;;;;;;;6.68;4.93;;;;;;;;;;5143736;27;20031;-74
2023/06/13 00:34:46;;;;;;;4.65;4.30;;;;;;;;;;5153383;27;20034;-76
2023/06/13 00:37:14;;;;;;;4.40;4.00;;;;;;;;;;5120786;27;20046;-76
2023/06/13 00:39:40;;;;;;;4.50;4.00;;;;;;;;;;5116555;27;20031;-76
2023/06/13 00:42:06;;;;;;;5.82;4.35;;;;;;;;;;5115657;27;20046;-76
2023/06/13 00:44:33;;;;;;;4.93;4.35;;;;;;;;;;5115957;27;20061;-76
2023/06/13 00:47:00;;;;;;;5.15;4.63;;;;;;;;;;5098978;27;20409;-77
2023/06/13 00:49:26;;;;;;;9.65;4.43;;;;;;;;;;5116124;27;20209;-78
2023/06/13 00:51:52;;;;;;;4.90;4.50;;;;;;;;;;5116205;27;20169;-76
2023/06/13 00:54:18;;;;;;;5.20;4.28;;;;;;;;;;5133892;27;20043;-77
2023/06/13 00:56:45;;;;;;;5.28;4.78;;;;;;;;;;5082164;27;20027;-78
2023/06/13 00:59:12;;;;;;;6.43;4.10;;;;;;;;;;5135735;27;20404;-76
2023/06/13 01:01:42;;;;;;;5.40;4.90;;;;;;;;;;5134702;27;20373;-76
2023/06/13 01:04:08;;;;;;;6.90;5.20;;;;;;;;;;5117137;27;20231;-76
2023/06/13 01:06:40;;;;;;;5.70;5.20;;;;;;;;;;5116355;27;20386;-78
2023/06/13 01:09:08;;;;;;;6.07;4.18;;;;;;;;;;5111951;28;20067;-75
2023/06/13 01:11:35;;;;;;;5.03;4.43;;;;;;;;;;5112161;28;20510;-76
2023/06/13 01:14:05;;;;;;;4.55;4.15;;;;;;;;;;5112312;28;20031;-76
2023/06/13 01:16:33;;;;;;;;;;;;;;;;;;5095408;28;20574;-76
2023/06/13 01:19:00;;;;;;;5.15;4.65;;;;;;;;;;5113006;28;19915;-76
2023/06/13 01:21:28;;;;;;;4.47;3.97;;;;;;;;;;5112548;27;20455;-75
2023/06/13 01:24:00;;;;;;;6.03;4.45;;;;;;;;;;5111580;28;20031;-76
2023/06/13 01:26:46;;;;;;;4.95;4.22;;;;;;;;;;5094780;28;20035;-75
2023/06/13 01:29:15;;;;;;;4.65;4.25;;;;;;;;;;5112290;28;20035;-76
2023/06/13 01:31:41;;;;;;;7.35;5.10;;;;;;;;;;5112593;28;20040;-76
2023/06/13 01:34:10;;;;;;;8.27;4.22;;;;;;;;;;5111308;28;20063;-75
2023/06/13 01:36:36;;;;;;;5.80;4.82;;;;;;;;;;5111295;28;20031;-75
2023/06/13 01:39:03;;;;;;;4.82;4.43;;;;;;;;;;5094680;28;20486;-76
2023/06/13 01:41:29;;;;;;;8.20;4.63;;;;;;;;;;5110841;28;20563;-76
2023/06/13 01:43:58;;;;;;;5.60;4.95;;;;;;;;;;5094707;28;20039;-75
2023/06/13 01:46:29;;;;;;;5.65;5.07;;;;;;;;;;5112236;28;20055;-75
2023/06/13 01:49:00;;;;;;;7.13;5.07;;;;;;;;;;5111124;28;20078;-76
2023/06/13 01:51:26;;;;;;;5.60;4.63;;;;;;;;;;5110793;28;20677;-76
2023/06/13 01:53:55;;;;;;;6.75;4.50;;;;;;;;;;5112181;28;20041;-76
2023/06/13 01:56:22;;;;;;;5.30;4.82;;;;;;;;;;5112014;28;20088;-76
2023/06/13 01:58:50;;;;;;;4.38;4.00;;;;;;;;;;5094219;28;20118;-75
2023/06/13 02:01:16;;;;;;;4.40;4.00;;;;;;;;;;5093739;28;20493;-76
2023/06/13 02:03:42;;;;;;;3.72;3.42;;;;;;;;;;5110969;28;20036;-76
2023/06/13 02:06:08;;;;;;;4.90;3.80;;;;;;;;;;5111929;28;20032;-76
2023/06/13 02:08:35;;;;;;;5.60;3.70;;;;;;;;;;5115518;27;20042;-76
2023/06/13 02:11:01;;;;;;;3.97;3.55;;;;;;;;;;5132506;27;20039;-76
2023/06/13 02:13:32;;;;;;;4.20;3.65;;;;;;;;;;5113964;27;20109;-76
2023/06/13 02:15:58;;;;;;;4.05;3.65;;;;;;;;;;5132247;27;20043;-76
2023/06/13 02:18:25;;;;;;;4.75;3.40;;;;;;;;;;5113863;27;20027;-77
2023/06/13 02:20:51;;;;;;;3.67;3.38;;;;;;;;;;5132625;27;20556;-76
2023/06/13 02:23:18;;;;;;;6.53;3.53;;;;;;;;;;5149773;27;20046;-75
2023/06/13 02:25:44;;;;;;;4.95;3.33;;;;;;;;;;5137924;27;20034;-76
2023/06/13 02:28:10;;;;;;;4.85;3.30;;;;;;;;;;5114300;27;20118;-75
2023/06/13 02:30:36;;;;;;;7.90;3.55;;;;;;;;;;5132119;27;20039;-76
2023/06/13 02:33:03;;;;;;;3.60;3.30;;;;;;;;;;5096522;27;20580;-76
2023/06/13 02:35:29;;;;;;;5.60;3.70;;;;;;;;;;5131744;27;20178;-76
2023/06/13 02:37:56;;;;;;;4.10;3.47;;;;;;;;;;5131819;27;20075;-75
2023/06/13 02:40:25;;;;;;;3.70;3.40;;;;;;;;;;5096574;27;20031;-78
2023/06/13 02:42:52;;;;;;;4.72;3.17;;;;;;;;;;5113263;27;20156;-79
2023/06/13 02:45:18;;;;;;;3.92;3.60;;;;;;;;;;5096548;27;20035;-78
2023/06/13 02:47:45;;;;;;;3.60;3.30;;;;;;;;;;5113624;27;20023;-77
2023/06/13 02:50:11;;;;;;;4.57;3.17;;;;;;;;;;5131671;27;20415;-77
2023/06/13 02:52:37;;;;;;;3.42;3.20;;;;;;;;;;5113011;27;20493;-78
2023/06/13 02:55:10;;;;;;;4.13;3.60;;;;;;;;;;5131705;27;20117;-78
2023/06/13 02:57:39;;;;;;;5.47;3.40;;;;;;;;;;5112982;27;20031;-77
2023/06/13 03:00:07;;;;;;;7.10;3.30;;;;;;;;;;5113611;27;20448;-79
2023/06/13 03:02:36;;;;;;;9.30;3.40;;;;;;;;;;5079195;27;20037;-76
2023/06/13 03:05:10;;;;;;;5.40;3.45;;;;;;;;;;5113309;27;20505;-77
2023/06/13 03:07:42;;;;;;;5.28;3.28;;;;;;;;;;5113028;27;20050;-78
2023/06/13 03:10:10;;;;;;;4.45;3.03;;;;;;;;;;5113256;27;20552;-79
2023/06/13 03:12:39;;;;;;;3.90;3.58;;;;;;;;;;5096812;27;20027;-78
2023/06/13 03:15:06;;;;;;;7.53;3.10;;;;;;;;;;5131854;27;20041;-78
2023/06/13 03:17:33;;;;;;;5.25;2.92;;;;;;;;;;5113291;27;20062;-78
2023/06/13 03:20:00;;;;;;;3.45;3.15;;;;;;;;;;5096591;27;20304;-79
2023/06/13 03:22:26;;;;;;;3.13;2.92;;;;;;;;;;5113234;27;20297;-79
2023/06/13 03:24:52;;;;;;;5.95;3.30;;;;;;;;;;5131535;27;20343;-77
2023/06/13 03:27:19;;;;;;;4.60;3.05;;;;;;;;;;5079154;28;20027;-78
2023/06/13 03:29:46;;;;;;;5.03;2.80;;;;;;;;;;5112990;28;20130;-77
2023/06/13 03:32:12;;;;;;;3.38;3.08;;;;;;;;;;5113031;28;20637;-79
2023/06/13 03:34:40;;;;;;;5.35;2.75;;;;;;;;;;5112886;28;20037;-78
2023/06/13 03:37:08;;;;;;;4.45;3.13;;;;;;;;;;5112917;28;20046;-78
2023/06/13 03:39:37;;;;;;;3.50;2.90;;;;;;;;;;5096109;27;20035;-78
2023/06/13 03:42:03;;;;;;;3.72;3.20;;;;;;;;;;5131262;27;20501;-79
2023/06/13 03:44:29;;;;;;;4.10;3.17;;;;;;;;;;5112680;27;20046;-78
2023/06/13 03:46:56;;;;;;;3.55;2.92;;;;;;;;;;5096291;28;20038;-78
2023/06/13 03:49:23;;;;;;;3.40;3.13;;;;;;;;;;5112752;27;20505;-78
2023/06/13 03:51:49;;;;;;;4.25;3.00;;;;;;;;;;5131248;27;20046;-77
2023/06/13 03:54:15;;;;;;;5.68;3.00;;;;;;;;;;5131901;27;20397;-77
2023/06/13 03:56:42;;;;;;;2.90;2.70;;;;;;;;;;5113898;27;20035;-77
2023/06/13 03:59:08;;;;;;;5.30;2.95;;;;;;;;;;5137890;27;20032;-77
2023/06/13 04:01:34;;;;;;;5.10;2.90;;;;;;;;;;5116270;27;20402;-78
2023/06/13 04:04:01;;;;;;;4.65;2.60;;;;;;;;;;5119547;28;20046;-78
2023/06/13 04:06:28;;;;;;;5.78;2.83;;;;;;;;;;5130704;27;20038;-78
2023/06/13 04:08:57;;;;;;;2.92;2.55;;;;;;;;;;5112748;27;20119;-78
2023/06/13 04:11:24;;;;;;;2.20;2.10;;;;;;;;;;5112680;28;20615;-78
2023/06/13 04:13:50;;;;;;;3.10;2.33;;;;;;;;;;5152609;27;20039;-78
2023/06/13 04:16:16;;;;;;;3.10;2.20;;;;;;;;;;5098734;28;20090;-79
2023/06/13 04:18:44;;;;;;;3.15;2.92;;;;;;;;;;5113262;28;20031;-78
2023/06/13 04:21:10;;;;;;;2.25;2.05;;;;;;;;;;5130989;27;20042;-79
2023/06/13 04:23:36;;;;;;;2.67;2.53;;;;;;;;;;5112512;28;20413;-78
2023/06/13 04:26:03;;;;;;;3.53;2.60;;;;;;;;;;5130728;27;20034;-78
2023/06/13 04:28:32;;;;;;;2.38;2.25;;;;;;;;;;5130813;27;20089;-78
2023/06/13 04:31:00;;;;;;;4.03;2.40;;;;;;;;;;5134386;27;20049;-78
2023/06/13 04:33:26;;;;;;;4.45;2.22;;;;;;;;;;5115632;27;20035;-78
2023/06/13 04:35:54;;;;;;;2.78;2.05;;;;;;;;;;5099295;27;20073;-80
2023/06/13 04:38:21;;;;;;;2.53;2.20;;;;;;;;;;5134565;27;20039;-80
2023/06/13 04:40:48;;;;;;;4.00;2.38;;;;;;;;;;5134433;27;20050;-79
2023/06/13 04:43:17;;;;;;;2.28;2.08;;;;;;;;;;5134593;27;20565;-80
2023/06/13 04:45:43;;;;;;;5.38;2.20;;;;;;;;;;5134229;27;20087;-77
2023/06/13 04:48:10;;;;;;;2.63;2.28;;;;;;;;;;5115938;27;20066;-77
2023/06/13 04:50:37;;;;;;;2.33;2.10;;;;;;;;;;5134083;27;20047;-79
2023/06/13 04:53:07;;;;;;;2.25;2.00;;;;;;;;;;5099155;27;20069;-79
2023/06/13 04:55:35;;;;;;;3.50;2.10;;;;;;;;;;5116213;27;20031;-78
2023/06/13 04:58:01;;;;;;;4.75;1.92;;;;;;;;;;5115575;27;20091;-79
2023/06/13 05:00:28;;;;;;;4.07;2.10;;;;;;;;;;5134262;27;20046;-80
2023/06/13 05:02:55;;;;;;;2.17;1.88;;;;;;;;;;5133871;27;20027;-79
2023/06/13 05:05:22;;;;;;;5.10;2.20;;;;;;;;;;5133699;27;20046;-79
2023/06/13 05:07:49;;;;;;;5.43;2.30;;;;;;;;;;5133640;27;20122;-78
2023/06/13 05:10:15;;;;;;;2.95;2.10;;;;;;;;;;5133356;27;20134;-79
2023/06/13 05:12:41;;;;;;;3.50;2.15;;;;;;;;;;5114818;27;20027;-78
2023/06/13 05:15:07;;;;;;;2.13;2.03;;;;;;;;;;5115156;27;20394;-79
2023/06/13 05:17:34;;;;;;;5.07;2.10;;;;;;;;;;5133166;27;20040;-79
2023/06/13 05:20:00;;;;;;;6.47;2.13;;;;;;;;;;5133381;27;20435;-78
2023/06/13 05:22:26;;;;;;;2.95;1.90;;;;;;;;;;5114985;27;20031;-79
2023/06/13 05:24:52;;;;;;;5.20;2.22;;;;;;;;;;5133454;27;20117;-79
2023/06/13 05:27:18;;;;;;;3.60;2.00;;;;;;;;;;5133706;27;20616;-79
2023/06/13 05:29:44;;;;;;;2.92;1.88;;;;;;;;;;5097851;27;20402;-79
2023/06/13 05:32:10;;;;;;;2.20;2.00;;;;;;;;;;5133403;27;20098;-78
2023/06/13 05:34:37;;;;;;;2.08;1.90;;;;;;;;;;5133153;27;20035;-77
2023/06/13 05:37:10;;;;;;;1.88;1.77;;;;;;;;;;5133104;27;20562;-77
2023/06/13 05:39:37;;;;;;;2.08;1.98;;;;;;;;;;5114226;27;20042;-78
2023/06/13 05:42:03;;;;;;;2.70;1.90;;;;;;;;;;5132751;27;20092;-79
2023/06/13 05:44:29;;;;;;;9.85;2.03;;;;;;;;;;5114318;27;20023;-78
2023/06/13 05:46:56;;;;;;;1.80;1.70;;;;;;;;;;5114251;27;20054;-79
2023/06/13 05:49:22;;;;;;;3.38;2.28;;;;;;;;;;5114238;27;20084;-80
2023/06/13 05:51:48;;;;;;;3.65;1.70;;;;;;;;;;5132373;27;20035;-77
2023/06/13 05:54:14;;;;;;;2.05;1.67;;;;;;;;;;5132699;27;20412;-78
2023/06/13 05:56:40;;;;;;;2.72;1.77;;;;;;;;;;5132542;27;20031;-80
2023/06/13 05:59:06;;;;;;;1.75;1.65;;;;;;;;;;5116262;27;20046;-79
2023/06/13 06:01:34;;;;;;;2.45;1.88;;;;;;;;;;5121874;27;20505;-80
2023/06/13 06:04:00;;;;;;;2.30;2.08;;;;;;;;;;5152780;27;20043;-78
2023/06/13 06:06:26;;;;;;;5.28;2.20;;;;;;;;;;5134279;27;20574;-80
2023/06/13 06:08:52;;;;;;;2.70;1.90;;;;;;;;;;5132904;27;20051;-76
2023/06/13 06:11:18;;;;;;;2.03;1.90;;;;;;;;;;5132549;27;20262;-78
2023/06/13 06:13:44;;;;;;;4.93;2.40;;;;;;;;;;5097024;27;20026;-77
2023/06/13 06:16:11;;;;;;;4.15;2.08;;;;;;;;;;5132510;27;20063;-77
2023/06/13 06:18:37;;;;;;;4.65;2.70;;;;;;;;;;5113605;27;20023;-78
2023/06/13 06:21:03;;;;;;;2.08;1.83;;;;;;;;;;5132291;27;20059;-78
2023/06/13 06:23:29;;;;;;;1.85;1.70;;;;;;;;;;5131804;27;20378;-79
2023/06/13 06:25:55;;;;;;;2.13;2.03;;;;;;;;;;5131983;27;20045;-80
2023/06/13 06:28:21;;;;;;;1.98;1.67;;;;;;;;;;5113722;27;20087;-78
2023/06/13 06:30:48;;;;;;;2.30;2.20;;;;;;;;;;5131838;27;20058;-81
2023/06/13 06:33:14;;;;;;;1.80;1.70;;;;;;;;;;5131887;27;20032;-79
2023/06/13 06:35:40;;;;;;;7.72;2.05;;;;;;;;;;5131944;27;20092;-80
2023/06/13 06:38:06;;;;;;;7.13;2.20;;;;;;;;;;5132184;27;20535;-77
2023/06/13 06:40:32;;;;;;;5.57;1.95;;;;;;;;;;5131727;27;20049;-78
2023/06/13 06:42:58;;;;;;;1.88;1.77;;;;;;;;;;5113257;27;20030;-79
2023/06/13 06:45:28;;;;;;;1.95;1.85;;;;;;;;;;5096293;27;20042;-79
2023/06/13 06:47:56;;;;;;;1.98;1.77;;;;;;;;;;5113211;27;20023;-78
2023/06/13 06:50:21;;;;;;;2.13;1.95;;;;;;;;;;5131652;27;20043;-78
2023/06/13 06:52:47;;;;;;;2.10;1.70;;;;;;;;;;5112299;27;20080;-79
2023/06/13 06:55:14;;;;;;;6.25;1.90;;;;;;;;;;5113553;27;20043;-78
2023/06/13 06:57:40;;;;;;;3.78;1.95;;;;;;;;;;5113069;27;20103;-79
2023/06/13 07:00:08;;;;;;;2.15;2.00;;;;;;;;;;5132064;27;20039;-78
2023/06/13 07:02:35;;;;;;;2.33;2.13;;;;;;;;;;5131633;27;20074;-79
2023/06/13 07:05:02;;;;;;;1.63;1.52;;;;;;;;;;5132178;27;20039;-79
2023/06/13 07:07:30;;;;;;;1.90;1.80;;;;;;;;;;5133172;27;20026;-77
2023/06/13 07:09:56;;;;;;;2.95;1.90;;;;;;;;;;5142783;27;20058;-77
2023/06/13 07:12:22;;;;;;;3.53;1.80;;;;;;;;;;5126352;27;20103;-78
2023/06/13 07:14:48;;;;;;;1.98;1.88;;;;;;;;;;5101124;27;20031;-78
2023/06/13 07:17:14;;;;;;;3.55;1.90;;;;;;;;;;5131727;27;20540;-78
2023/06/13 07:19:40;;;;;;;1.65;1.55;;;;;;;;;;5131481;27;20031;-80
2023/06/13 07:22:06;;;;;;;2.42;1.70;;;;;;;;;;5131522;27;20031;-80
2023/06/13 07:24:32;;;;;;;2.40;2.00;;;;;;;;;;5131353;27;20118;-79
2023/06/13 07:26:58;;;;;;;3.47;1.83;;;;;;;;;;5131693;27;20042;-80
2023/06/13 07:29:24;;;;;;;2.45;1.90;;;;;;;;;;5113054;27;20046;-79
2023/06/13 07:31:51;;;;;;;2.28;2.08;;;;;;;;;;5131266;27;20035;-80
2023/06/13 07:34:16;;;;;;;1.80;1.67;;;;;;;;;;5112670;27;20061;-78
2023/06/13 07:36:43;;;;;;;4.68;1.58;;;;;;;;;;5131207;27;20573;-81
2023/06/13 07:39:11;;;;;;;2.03;1.85;;;;;;;;;;5097405;27;20034;-79
2023/06/13 07:41:37;;;;;;;4.22;2.60;;;;;;;;;;5113803;28;20046;-79
2023/06/13 07:44:03;;;;;;;2.55;1.70;;;;;;;;;;5132945;27;20035;-80
2023/06/13 07:46:30;;;;;;;3.25;2.08;;;;;;;;;;5117854;27;20027;-80
2023/06/13 07:48:55;;;;;;;2.47;1.95;;;;;;;;;;5143113;27;20046;-79
2023/06/13 07:51:22;;;;;;;2.17;1.80;;;;;;;;;;5125607;27;20141;-78
2023/06/13 07:53:48;;;;;;;4.30;2.00;;;;;;;;;;5132825;28;20028;-79
2023/06/13 07:56:14;;;;;;;2.42;1.65;;;;;;;;;;5122896;27;20106;-79
2023/06/13 07:58:40;;;;;;;6.28;1.90;;;;;;;;;;5119132;27;20038;-80
2023/06/13 08:01:06;;;;;;;2.67;2.10;;;;;;;;;;5136132;27;20031;-79
2023/06/13 08:03:32;;;;;;;2.60;2.00;;;;;;;;;;5118450;27;20174;-79
2023/06/13 08:05:58;;;;;;;2.15;2.00;;;;;;;;;;5119865;27;20031;-80
2023/06/13 08:08:24;;;;;;;2.20;2.00;;;;;;;;;;5101881;27;20092;-79
2023/06/13 08:10:50;;;;;;;2.42;2.17;;;;;;;;;;5137672;27;20058;-79
2023/06/13 08:13:16;;;;;;;2.38;2.15;;;;;;;;;;5140398;27;20039;-79
2023/06/13 08:15:43;;;;;;;3.70;2.10;;;;;;;;;;5120253;27;20183;-80
2023/06/13 08:18:10;;;;;;;2.97;1.80;;;;;;;;;;5137450;27;20167;-80
2023/06/13 08:20:37;;;;;;;2.20;2.00;;;;;;;;;;5117521;27;20031;-79
2023/06/13 08:23:03;;;;;;;2.05;1.85;;;;;;;;;;5116614;27;20045;-79
2023/06/13 08:25:29;;;;;;;2.03;1.75;;;;;;;;;;5116527;27;20123;-79
2023/06/13 08:27:55;;;;;;;3.08;1.88;;;;;;;;;;5115899;27;20031;-80
2023/06/13 08:30:21;;;;;;;2.28;2.08;;;;;;;;;;5134689;27;20043;-80
2023/06/13 08:32:48;;;;;;;1.95;1.85;;;;;;;;;;5134317;27;20039;-79
2023/06/13 08:35:15;;;;;;;5.07;1.63;;;;;;;;;;5116467;27;20069;-79
2023/06/13 08:37:41;;;;;;;8.02;2.40;;;;;;;;;;5134200;27;20072;-80
2023/06/13 08:40:09;;;;;;;1.92;1.83;;;;;;;;;;5134713;27;20043;-78
2023/06/13 08:42:36;;;;;;;2.90;2.00;;;;;;;;;;5134289;27;20095;-80
2023/06/13 08:45:02;;;;;;;2.92;2.05;;;;;;;;;;5117313;27;20038;-81
2023/06/13 08:47:32;;;;;;;6.97;1.92;;;;;;;;;;5116429;27;20626;-79
2023/06/13 08:50:00;;;;;;;2.58;1.90;;;;;;;;;;5134415;27;20042;-80
2023/06/13 08:52:26;;;;;;;2.20;2.08;;;;;;;;;;5134546;27;20038;-79
2023/06/13 08:54:55;;;;;;;2.40;2.20;;;;;;;;;;5098791;27;20035;-78
2023/06/13 08:57:21;;;;;;;2.05;1.95;;;;;;;;;;5098676;27;20497;-78
2023/06/13 08:59:48;;;;;;;2.67;2.30;;;;;;;;;;5134445;27;20063;-80
2023/06/13 09:02:14;;;;;;;1.90;1.80;;;;;;;;;;5099367;27;20037;-79
2023/06/13 09:04:40;;;;;;;2.13;1.98;;;;;;;;;;5133486;27;20035;-79
2023/06/13 09:07:06;;;;;;;2.15;1.95;;;;;;;;;;5098512;27;20531;-79
2023/06/13 09:09:33;;;;;;;1.50;1.40;;;;;;;;;;5134070;27;20054;-79
2023/06/13 09:11:59;;;;;;;2.20;2.00;;;;;;;;;;5116005;27;20046;-78
2023/06/13 09:14:25;;;;;;;4.78;2.08;;;;;;;;;;5117733;28;20031;-80
2023/06/13 09:16:52;;;;;;;2.33;2.13;;;;;;;;;;5120389;27;20079;-80
2023/06/13 09:19:19;;;;;;;4.30;2.28;;;;;;;;;;5120868;27;20031;-79
2023/06/13 09:21:45;;;;;;;1.95;1.85;;;;;;;;;;5140888;27;20039;-80
2023/06/13 09:24:12;;;;;;;3.58;1.92;;;;;;;;;;5141439;27;20065;-80
2023/06/13 09:26:39;;;;;;;3.15;1.90;;;;;;;;;;5088639;27;20043;-79
2023/06/13 09:29:08;;;;;;;2.10;1.92;;;;;;;;;;5143212;27;20061;-80
2023/06/13 09:31:38;;;;;;;2.67;2.47;;;;;;;;;;5107454;27;20480;-79
2023/06/13 09:34:06;;;;;;;4.17;1.87;;;;;;;;;;5144990;27;20084;-81
2023/06/13 09:36:32;;;;;;;4.25;2.05;;;;;;;;;;5141681;27;20046;-78
2023/06/13 09:38:58;;;;;;;3.60;1.95;;;;;;;;;;5121445;27;20038;-80
2023/06/13 09:41:24;;;;;;;6.32;2.10;;;;;;;;;;5126415;27;20031;-78
2023/06/13 09:43:52;;;;;;;5.78;1.83;;;;;;;;;;5144118;27;20047;-80
2023/06/13 09:46:19;;;;;;;2.33;1.90;;;;;;;;;;5135417;27;20039;-79
2023/06/13 09:48:45;;;;;;;2.50;2.10;;;;;;;;;;5133490;27;20039;-79
2023/06/13 09:51:11;;;;;;;6.15;2.22;;;;;;;;;;5133393;27;20043;-79
2023/06/13 09:53:38;;;;;;;3.35;2.05;;;;;;;;;;5133001;27;20086;-80
2023/06/13 09:56:09;;;;;;;3.50;2.28;;;;;;;;;;5132913;27;20455;-79
2023/06/13 09:58:38;;;;;;;2.13;1.90;;;;;;;;;;5114966;27;20067;-79
2023/06/13 10:01:12;;;;;;;3.60;2.45;;;;;;;;;;5114847;27;20073;-79
2023/06/13 10:03:38;;;;;;;9.27;2.10;;;;;;;;;;5133643;27;20039;-80
2023/06/13 10:06:03;;;;;;;2.50;2.20;;;;;;;;;;5133142;27;20138;-78
2023/06/13 10:08:31;;;;;;;2.63;2.42;;;;;;;;;;5133553;27;20051;-78
2023/06/13 10:10:58;;;;;;;1.60;1.50;;;;;;;;;;5118345;27;20039;-78
2023/06/13 10:13:28;;;;;;;3.35;1.90;;;;;;;;;;5119501;27;20084;-79
2023/06/13 10:15:56;;;;;;;2.20;2.10;;;;;;;;;;5136715;27;20095;-79
2023/06/13 10:18:29;;;;;;;4.35;2.50;;;;;;;;;;5116114;27;20069;-81
2023/06/13 10:20:56;;;;;;;2.00;1.90;;;;;;;;;;5113766;27;20039;-80
2023/06/13 10:23:23;;;;;;;1.50;1.50;;;;;;;;;;5114507;27;20042;-80
2023/06/13 10:25:50;;;;;;;3.92;1.65;;;;;;;;;;5114089;27;20539;-79
2023/06/13 10:28:21;;;;;;;2.55;2.42;;;;;;;;;;5131620;27;20088;-80
2023/06/13 10:30:46;;;;;;;;;;;;;;;;;;5114543;27;20568;-79
2023/06/13 10:33:13;;;;;;;4.18;1.85;;;;;;;;;;5114239;27;20064;-78
2023/06/13 10:35:54;;;;;;;3.42;2.30;;;;;;;;;;5132371;27;20394;-80
2023/06/13 10:38:43;;;;;;;2.40;2.15;;;;;;;;;;5113824;27;20039;-79
2023/06/13 10:41:16;;;;;;;3.30;2.13;;;;;;;;;;5116594;27;20053;-79
2023/06/13 10:43:48;;;;;;;2.42;2.22;;;;;;;;;;5131604;27;20054;-79
2023/06/13 10:46:14;;;;;;;5.13;2.40;;;;;;;;;;5114018;27;20035;-78
2023/06/13 10:48:46;;;;;;;2.90;2.42;;;;;;;;;;5131713;27;20031;-79
2023/06/13 10:51:12;;;;;;;4.43;2.40;;;;;;;;;;5113312;27;20570;-79
2023/06/13 10:53:38;;;;;;;2.33;2.15;;;;;;;;;;5131813;27;20035;-80
2023/06/13 10:56:07;;;;;;;2.35;1.80;;;;;;;;;;5131309;27;20100;-80
2023/06/13 10:58:33;;;;;;;2.20;2.10;;;;;;;;;;5131699;27;20159;-80
2023/06/13 11:01:03;;;;;;;2.70;2.55;;;;;;;;;;5113105;27;20031;-79
2023/06/13 11:03:30;;;;;;;4.32;2.58;;;;;;;;;;5113472;27;20031;-80
2023/06/13 11:05:56;;;;;;;2.60;2.40;;;;;;;;;;5131351;27;20087;-78
2023/06/13 11:08:23;;;;;;;1.85;1.75;;;;;;;;;;5131404;27;20039;-80
2023/06/13 11:10:49;;;;;;;4.82;2.25;;;;;;;;;;5131160;27;20089;-79
2023/06/13 11:13:16;;;;;;;2.78;2.03;;;;;;;;;;5131325;27;20122;-79
2023/06/13 11:15:43;;;;;;;3.88;2.45;;;;;;;;;;5113361;27;20034;-78
2023/06/13 11:18:09;;;;;;;3.03;2.35;;;;;;;;;;5131321;27;20513;-79
2023/06/13 11:20:49;;;;;;;6.35;2.40;;;;;;;;;;5096137;27;20042;-79
2023/06/13 11:23:18;;;;;;;3.45;2.55;;;;;;;;;;5112954;27;20542;-79
2023/06/13 11:25:45;;;;;;;4.47;2.50;;;;;;;;;;5112769;27;20455;-79
2023/06/13 11:28:14;;;;;;;4.32;2.80;;;;;;;;;;5132485;27;20429;-79
2023/06/13 11:30:41;;;;;;;2.92;2.60;;;;;;;;;;5154417;27;20057;-79
2023/06/13 11:33:07;;;;;;;3.33;2.75;;;;;;;;;;5114954;27;20112;-79
2023/06/13 11:35:33;;;;;;;3.15;2.50;;;;;;;;;;5131725;27;20050;-79
2023/06/13 11:38:00;;;;;;;3.22;2.50;;;;;;;;;;5096763;27;20031;-78
2023/06/13 11:40:30;;;;;;;2.10;2.00;;;;;;;;;;5135569;27;20175;-79
2023/06/13 11:42:56;;;;;;;6.80;2.20;;;;;;;;;;5116508;27;20035;-77
2023/06/13 11:45:22;;;;;;;2.28;2.17;;;;;;;;;;5116678;27;20035;-79
2023/06/13 11:47:55;;;;;;;2.53;2.38;;;;;;;;;;5134671;27;20035;-79
2023/06/13 11:50:24;;;;;;;6.63;2.47;;;;;;;;;;5135289;27;20417;-81
2023/06/13 11:53:01;;;;;;;5.53;2.60;;;;;;;;;;5117003;27;20034;-79
2023/06/13 11:55:27;;;;;;;2.78;2.22;;;;;;;;;;5135272;27;20228;-79
2023/06/13 11:57:55;;;;;;;4.90;2.47;;;;;;;;;;5134654;27;20239;-80
2023/06/13 12:00:25;;;;;;;5.15;2.05;;;;;;;;;;5135188;27;20520;-79
2023/06/13 12:02:52;;;;;;;2.70;2.50;;;;;;;;;;5100232;27;20027;-80
2023/06/13 12:05:18;;;;;;;2.80;2.00;;;;;;;;;;5116645;27;20039;-79
2023/06/13 12:07:45;;;;;;;3.85;2.45;;;;;;;;;;5134979;27;20034;-80
2023/06/13 12:10:12;;;;;;;4.03;2.67;;;;;;;;;;5099296;27;20057;-79
2023/06/13 12:12:39;;;;;;;2.88;2.30;;;;;;;;;;5134616;27;20039;-79
2023/06/13 12:15:07;;;;;;;2.30;2.10;;;;;;;;;;5134544;27;20528;-78
2023/06/13 12:17:33;;;;;;;3.65;2.30;;;;;;;;;;5134788;27;20039;-78
2023/06/13 12:20:06;;;;;;;2.55;2.25;;;;;;;;;;5134584;27;20047;-79
2023/06/13 12:22:32;;;;;;;2.40;2.20;;;;;;;;;;5134863;27;20039;-79
2023/06/13 12:24:58;;;;;;;2.47;2.38;;;;;;;;;;5115879;27;20099;-79
2023/06/13 12:27:25;;;;;;;5.50;2.75;;;;;;;;;;5116435;27;20035;-77
2023/06/13 12:29:52;;;;;;;2.70;2.50;;;;;;;;;;5134119;27;20035;-78
2023/06/13 12:32:18;;;;;;;6.03;2.42;;;;;;;;;;5134651;27;20042;-79
2023/06/13 12:34:45;;;;;;;3.45;2.50;;;;;;;;;;5099072;27;20031;-79
2023/06/13 12:37:13;;;;;;;3.15;2.72;;;;;;;;;;5115544;27;20138;-80
2023/06/13 12:39:59;;;;;;;5.57;2.50;;;;;;;;;;5134403;27;20523;-78
2023/06/13 12:42:25;;;;;;;2.70;2.45;;;;;;;;;;5134289;27;20034;-79
2023/06/13 12:44:51;;;;;;;3.03;2.58;;;;;;;;;;5115547;27;20051;-79
2023/06/13 12:47:17;;;;;;;2.70;2.50;;;;;;;;;;5134475;27;20115;-78
2023/06/13 12:49:42;;;;;;;2.30;2.20;;;;;;;;;;5132975;27;20046;-79
2023/06/13 12:52:15;;;;;;;2.67;2.50;;;;;;;;;;5115640;27;20046;-79
2023/06/13 12:54:41;;;;;;;2.60;2.30;;;;;;;;;;5115968;27;20501;-79
2023/06/13 12:57:10;;;;;;;5.93;2.25;;;;;;;;;;5134140;27;20066;-79
2023/06/13 12:59:37;;;;;;;2.47;2.30;;;;;;;;;;5134442;27;20046;-79
2023/06/13 13:02:04;;;;;;;3.20;2.63;;;;;;;;;;5134459;27;20057;-80
2023/06/13 13:04:30;;;;;;;2.95;2.45;;;;;;;;;;5134648;27;20031;-79
2023/06/13 13:06:56;;;;;;;8.70;2.95;;;;;;;;;;5126077;27;20038;-78
2023/06/13 13:09:23;;;;;;;2.60;2.40;;;;;;;;;;5144770;27;20541;-79
2023/06/13 13:11:49;;;;;;;2.40;2.20;;;;;;;;;;5135919;27;20472;-79
2023/06/13 13:14:15;;;;;;;3.17;2.47;;;;;;;;;;5137425;27;20493;-79
2023/06/13 13:16:41;;;;;;;2.88;2.67;;;;;;;;;;5132830;27;20072;-79
2023/06/13 13:19:07;;;;;;;4.82;2.38;;;;;;;;;;5140339;27;20055;-80
2023/06/13 13:21:33;;;;;;;5.18;2.50;;;;;;;;;;5134807;27;20555;-78
2023/06/13 13:24:00;;;;;;;2.78;2.58;;;;;;;;;;5097922;27;20131;-78
2023/06/13 13:26:26;;;;;;;3.05;2.72;;;;;;;;;;5133365;27;20031;-79
2023/06/13 13:28:52;;;;;;;5.13;2.75;;;;;;;;;;5114643;27;20035;-78
2023/06/13 13:31:17;;;;;;;3.55;2.70;;;;;;;;;;5115063;27;20047;-80
2023/06/13 13:33:43;;;;;;;3.05;2.78;;;;;;;;;;5133156;27;20027;-78
2023/06/13 13:36:09;;;;;;;2.33;2.17;;;;;;;;;;5133075;27;20134;-79
2023/06/13 13:38:36;;;;;;;4.10;3.00;;;;;;;;;;5133177;27;20055;-78
2023/06/13 13:41:02;;;;;;;4.75;2.67;;;;;;;;;;5114620;27;20074;-79
2023/06/13 13:43:28;;;;;;;3.08;2.50;;;;;;;;;;5132892;27;20027;-78
2023/06/13 13:45:54;;;;;;;2.83;2.40;;;;;;;;;;5132854;27;20046;-79
2023/06/13 13:48:20;;;;;;;2.60;2.40;;;;;;;;;;5133086;27;20405;-78
2023/06/13 13:50:46;;;;;;;2.67;2.47;;;;;;;;;;5132755;27;20107;-79
2023/06/13 13:53:14;;;;;;;2.85;2.65;;;;;;;;;;5132895;27;20405;-79
2023/06/13 13:55:40;;;;;;;3.55;2.92;;;;;;;;;;5132930;27;20043;-79
2023/06/13 13:58:09;;;;;;;2.90;2.70;;;;;;;;;;5132592;27;20041;-80
2023/06/13 14:00:35;;;;;;;5.00;2.80;;;;;;;;;;5114292;27;20035;-79
2023/06/13 14:03:01;;;;;;;3.50;2.70;;;;;;;;;;5132487;27;20150;-79
2023/06/13 14:05:27;;;;;;;5.20;2.78;;;;;;;;;;5132844;27;20049;-79
2023/06/13 14:07:53;;;;;;;2.72;2.28;;;;;;;;;;5114099;27;20160;-79
2023/06/13 14:10:20;;;;;;;3.67;2.70;;;;;;;;;;5132544;27;20063;-80
2023/06/13 14:12:46;;;;;;;2.42;2.22;;;;;;;;;;5114462;27;20038;-78
2023/06/13 14:15:12;;;;;;;4.80;2.58;;;;;;;;;;5132534;27;20041;-79
2023/06/13 14:17:39;;;;;;;3.65;2.25;;;;;;;;;;5132641;27;20083;-80
2023/06/13 14:20:05;;;;;;;6.72;2.65;;;;;;;;;;5097203;27;20027;-80
2023/06/13 14:22:31;;;;;;;2.45;2.33;;;;;;;;;;5132872;27;20042;-80
2023/06/13 14:24:56;;;;;;;4.18;2.60;;;;;;;;;;5132435;27;20027;-80
2023/06/13 14:27:23;;;;;;;3.70;2.70;;;;;;;;;;5097053;27;20034;-79
2023/06/13 14:29:50;;;;;;;3.25;2.47;;;;;;;;;;5113618;27;20092;-79
2023/06/13 14:32:16;;;;;;;3.47;2.70;;;;;;;;;;5132222;27;20121;-78
2023/06/13 14:34:42;;;;;;;7.18;2.75;;;;;;;;;;5114077;27;20472;-79
2023/06/13 14:37:07;;;;;;;3.00;2.70;;;;;;;;;;5131823;27;20043;-78
2023/06/13 14:39:33;;;;;;;2.70;2.50;;;;;;;;;;5096731;27;20042;-78
2023/06/13 14:42:00;;;;;;;2.85;2.65;;;;;;;;;;5113422;27;20039;-79